sensor_id;sensor_type;location;lat;lon;timestamp;pressure;altitude;pressure_sealevel;temperature
40968;BMP280;57377;45.130;6.038;2023-02-14T01:10:02;94254.06;;;6.60
40968;BMP280;57377;45.130;6.038;2023-02-14T01:19:37;94244.56;;;6.43
40968;BMP280;57377;45.130;6.038;2023-02-14T01:32:54;94232.03;;;6.69
40968;BMP280;57377;45.130;6.038;2023-02-14T01:35:44;94242.09;;;6.48
40968;BMP280;57377;45.130;6.038;2023-02-14T01:42:44;94234.44;;;6.41
40968;BMP280;57377;45.130;6.038;2023-02-14T01:45:36;94236.59;;;5.98
40968;BMP280;57377;45.130;6.038;2023-02-14T01:48:19;94235.88;;;6.38
40968;BMP280;57377;45.130;6.038;2023-02-14T01:50:56;94227.75;;;6.23
40968;BMP280;57377;45.130;6.038;2023-02-14T01:57:37;94225.75;;;6.36
40968;BMP280;57377;45.130;6.038;2023-02-14T02:05:49;94222.97;;;6.08
40968;BMP280;57377;45.130;6.038;2023-02-14T02:11:20;94223.94;;;6.66
40968;BMP280;57377;45.130;6.038;2023-02-14T03:05:10;94191.69;;;5.99
40968;BMP280;57377;45.130;6.038;2023-02-14T03:11:22;94196.94;;;6.21
40968;BMP280;57377;45.130;6.038;2023-02-14T03:14:07;94192.13;;;6.25
40968;BMP280;57377;45.130;6.038;2023-02-14T03:16:43;94196.94;;;6.21
40968;BMP280;57377;45.130;6.038;2023-02-14T03:19:35;94199.56;;;6.33
40968;BMP280;57377;45.130;6.038;2023-02-14T03:22:37;94192.22;;;6.18
40968;BMP280;57377;45.130;6.038;2023-02-14T03:25:17;94196.38;;;6.19
40968;BMP280;57377;45.130;6.038;2023-02-14T03:36:33;94198.03;;;5.85
40968;BMP280;57377;45.130;6.038;2023-02-14T03:39:07;94185.13;;;6.14
40968;BMP280;57377;45.130;6.038;2023-02-14T03:41:40;94178.06;;;6.21
40968;BMP280;57377;45.130;6.038;2023-02-14T03:44:13;94183.09;;;6.16
40968;BMP280;57377;45.130;6.038;2023-02-14T03:46:48;94180.50;;;6.45
40968;BMP280;57377;45.130;6.038;2023-02-14T03:49:20;94188.63;;;6.48
40968;BMP280;57377;45.130;6.038;2023-02-14T03:51:48;94174.91;;;6.19
40968;BMP280;57377;45.130;6.038;2023-02-14T03:54:19;94177.53;;;6.30
40968;BMP280;57377;45.130;6.038;2023-02-14T03:57:22;94178.28;;;6.48
40968;BMP280;57377;45.130;6.038;2023-02-14T04:06:50;94174.56;;;5.69
40968;BMP280;57377;45.130;6.038;2023-02-14T04:16:22;94179.00;;;5.97
40968;BMP280;57377;45.130;6.038;2023-02-14T04:18:47;94173.03;;;5.97
40968;BMP280;57377;45.130;6.038;2023-02-14T04:22:03;94183.75;;;5.82
40968;BMP280;57377;45.130;6.038;2023-02-14T04:25:08;94188.34;;;6.09
40968;BMP280;57377;45.130;6.038;2023-02-14T04:28:04;94181.38;;;5.63
40968;BMP280;57377;45.130;6.038;2023-02-14T04:34:19;94174.22;;;6.12
40968;BMP280;57377;45.130;6.038;2023-02-14T04:37:05;94172.44;;;6.12
40968;BMP280;57377;45.130;6.038;2023-02-14T04:39:42;94175.06;;;5.95
40968;BMP280;57377;45.130;6.038;2023-02-14T04:42:28;94179.88;;;6.20
40968;BMP280;57377;45.130;6.038;2023-02-14T04:44:54;94183.72;;;6.29
40968;BMP280;57377;45.130;6.038;2023-02-14T04:47:19;94180.06;;;6.19
40968;BMP280;57377;45.130;6.038;2023-02-14T04:49:47;94176.13;;;6.16
40968;BMP280;57377;45.130;6.038;2023-02-14T04:52:47;94174.44;;;6.10
40968;BMP280;57377;45.130;6.038;2023-02-14T04:59:06;94179.44;;;5.94
40968;BMP280;57377;45.130;6.038;2023-02-14T05:01:59;94173.75;;;6.04
40968;BMP280;57377;45.130;6.038;2023-02-14T05:04:27;94172.56;;;5.71
40968;BMP280;57377;45.130;6.038;2023-02-14T05:06:55;94162.31;;;5.82
40968;BMP280;57377;45.130;6.038;2023-02-14T05:09:26;94177.16;;;5.86
40968;BMP280;57377;45.130;6.038;2023-02-14T05:12:14;94169.88;;;5.95
40968;BMP280;57377;45.130;6.038;2023-02-14T05:15:07;94167.31;;;5.95
40968;BMP280;57377;45.130;6.038;2023-02-14T05:24:12;94164.56;;;6.07
40968;BMP280;57377;45.130;6.038;2023-02-14T05:26:56;94171.03;;;5.99
40968;BMP280;57377;45.130;6.038;2023-02-14T05:29:31;94173.88;;;6.08
40968;BMP280;57377;45.130;6.038;2023-02-14T05:31:57;94164.28;;;5.98
40968;BMP280;57377;45.130;6.038;2023-02-14T05:34:22;94169.63;;;6.14
40968;BMP280;57377;45.130;6.038;2023-02-14T05:36:48;94165.41;;;6.02
40968;BMP280;57377;45.130;6.038;2023-02-14T05:39:13;94169.00;;;5.72
40968;BMP280;57377;45.130;6.038;2023-02-14T05:41:39;94166.59;;;5.70
40968;BMP280;57377;45.130;6.038;2023-02-14T05:44:07;94168.25;;;5.82
40968;BMP280;57377;45.130;6.038;2023-02-14T05:47:01;94173.22;;;5.84
40968;BMP280;57377;45.130;6.038;2023-02-14T05:52:59;94169.25;;;5.64
40968;BMP280;57377;45.130;6.038;2023-02-14T05:55:37;94167.88;;;5.97
40968;BMP280;57377;45.130;6.038;2023-02-14T05:58:16;94154.38;;;5.95
40968;BMP280;57377;45.130;6.038;2023-02-14T06:01:04;94163.25;;;5.70
40968;BMP280;57377;45.130;6.038;2023-02-14T17:13:43;93818.88;;;10.34
40968;BMP280;57377;45.130;6.038;2023-02-14T17:23:44;93812.88;;;10.29
40968;BMP280;57377;45.130;6.038;2023-02-14T17:26:58;93807.63;;;10.14
40968;BMP280;57377;45.130;6.038;2023-02-14T17:29:24;93813.75;;;9.98
40968;BMP280;57377;45.130;6.038;2023-02-14T17:31:51;93814.94;;;10.22
40968;BMP280;57377;45.130;6.038;2023-02-14T17:34:17;93804.81;;;10.25
40968;BMP280;57377;45.130;6.038;2023-02-14T17:37:05;93811.38;;;10.38
40968;BMP280;57377;45.130;6.038;2023-02-14T17:39:35;93812.88;;;10.24
40968;BMP280;57377;45.130;6.038;2023-02-14T17:42:33;93825.78;;;9.73
40968;BMP280;57377;45.130;6.038;2023-02-14T17:47:56;93819.91;;;9.88
40968;BMP280;57377;45.130;6.038;2023-02-14T17:50:22;93807.75;;;9.93
40968;BMP280;57377;45.130;6.038;2023-02-14T17:52:56;93816.47;;;10.13
40968;BMP280;57377;45.130;6.038;2023-02-14T17:55:24;93817.25;;;10.14
40968;BMP280;57377;45.130;6.038;2023-02-14T17:58:09;93816.38;;;10.03
40968;BMP280;57377;45.130;6.038;2023-02-14T18:00:47;93810.88;;;9.90
40968;BMP280;57377;45.130;6.038;2023-02-14T18:03:16;93827.16;;;9.81
40968;BMP280;57377;45.130;6.038;2023-02-14T18:09:22;93823.53;;;9.87
40968;BMP280;57377;45.130;6.038;2023-02-14T18:11:53;93807.63;;;10.14
40968;BMP280;57377;45.130;6.038;2023-02-14T18:20:29;93817.59;;;9.55
40968;BMP280;57377;45.130;6.038;2023-02-14T18:23:01;93818.88;;;9.53
40968;BMP280;57377;45.130;6.038;2023-02-14T18:29:02;93809.03;;;9.24
40968;BMP280;57377;45.130;6.038;2023-02-14T18:31:48;93812.78;;;9.37
40968;BMP280;57377;45.130;6.038;2023-02-14T18:34:16;93815.34;;;9.63
40968;BMP280;57377;45.130;6.038;2023-02-14T18:37:28;93816.09;;;9.02
40968;BMP280;57377;45.130;6.038;2023-02-14T18:40:23;93806.19;;;9.25
40968;BMP280;57377;45.130;6.038;2023-02-14T18:43:15;93811.72;;;9.33
40968;BMP280;57377;45.130;6.038;2023-02-14T18:46:22;93818.66;;;9.59
40968;BMP280;57377;45.130;6.038;2023-02-14T22:29:46;93808.97;;;8.19
40968;BMP280;57377;45.130;6.038;2023-02-14T23:45:12;93776.97;;;7.93
